createdAt,value
2018-12-06T00:00:27.679Z,11.17
2018-12-06T00:02:54.462Z,13.07
2018-12-06T00:05:20.907Z,12.17
2018-12-06T00:07:50.477Z,12.73
2018-12-06T00:10:16.959Z,13.57
2018-12-06T00:12:43.367Z,12.13
2018-12-06T00:15:21.565Z,12.90
2018-12-06T00:17:47.956Z,12.23
2018-12-06T00:20:14.779Z,13.07
2018-12-06T00:22:41.173Z,12.90
2018-12-06T00:25:07.592Z,17.13
2018-12-06T00:27:34.011Z,11.90
2018-12-06T00:30:12.709Z,12.27
2018-12-06T00:32:39.463Z,14.57
2018-12-06T00:35:05.934Z,14.87
2018-12-06T00:37:32.362Z,11.87
2018-12-06T00:39:59.991Z,12.60
2018-12-06T00:42:26.388Z,14.50
2018-12-06T00:44:56.850Z,11.27
2018-12-06T00:47:23.289Z,11.67
2018-12-06T00:49:50.705Z,13.77
2018-12-06T00:52:17.087Z,11.77
2018-12-06T00:54:43.884Z,12.43
2018-12-06T00:57:10.338Z,11.70
2018-12-06T00:59:36.791Z,11.53
2018-12-06T01:02:05.258Z,11.67
2018-12-06T01:04:31.711Z,12.30
2018-12-06T01:06:58.122Z,11.63
2018-12-06T01:09:24.724Z,12.17
2018-12-06T01:11:52.276Z,12.27
2018-12-06T01:14:20.760Z,11.13
2018-12-06T01:16:47.335Z,10.47
2018-12-06T01:19:13.808Z,12.03
2018-12-06T01:21:40.337Z,11.10
2018-12-06T01:24:07.150Z,11.80
2018-12-06T01:26:33.592Z,12.03
2018-12-06T01:29:00.018Z,12.30
2018-12-06T01:31:27.595Z,14.87
2018-12-06T01:33:54.118Z,14.40
2018-12-06T01:36:20.566Z,13.77
2018-12-06T01:38:46.998Z,10.13
2018-12-06T01:41:13.430Z,13.20
2018-12-06T01:43:39.860Z,12.83
2018-12-06T01:46:06.298Z,12.43
2018-12-06T01:48:32.810Z,11.80
2018-12-06T01:50:59.258Z,16.77
2018-12-06T01:53:26.049Z,12.03
2018-12-06T01:55:52.699Z,13.03
2018-12-06T01:58:19.074Z,12.97
2018-12-06T02:00:45.891Z,14.20
2018-12-06T02:03:12.660Z,14.17
2018-12-06T02:05:39.093Z,15.10
2018-12-06T02:08:05.532Z,15.00
2018-12-06T02:10:32.398Z,14.97
2018-12-06T02:12:58.971Z,13.23
2018-12-06T02:15:25.470Z,13.67
2018-12-06T02:17:51.863Z,14.37
2018-12-06T02:20:18.300Z,17.93
2018-12-06T02:22:44.701Z,15.97
2018-12-06T02:25:11.146Z,15.90
2018-12-06T02:27:37.575Z,13.73
2018-12-06T02:30:04.989Z,16.83
2018-12-06T02:32:31.450Z,14.90
2018-12-06T02:34:59.019Z,14.47
2018-12-06T02:37:25.544Z,14.83
2018-12-06T02:39:52.383Z,16.43
2018-12-06T02:42:18.837Z,17.33
2018-12-06T02:44:45.270Z,17.03
2018-12-06T02:47:11.736Z,15.37
2018-12-06T02:49:38.159Z,15.60
2018-12-06T02:52:04.675Z,19.07
2018-12-06T02:54:31.181Z,17.27
2018-12-06T02:56:57.718Z,17.10
2018-12-06T02:59:24.100Z,19.70
2018-12-06T03:01:50.545Z,18.13
2018-12-06T03:04:17.030Z,18.77
2018-12-06T03:06:43.641Z,20.67
2018-12-06T03:09:10.091Z,19.60
2018-12-06T03:11:36.623Z,18.40
2018-12-06T03:14:03.116Z,20.77
2018-12-06T03:16:29.585Z,22.10
2018-12-06T03:18:56.129Z,20.40
2018-12-06T03:21:22.564Z,21.50
2018-12-06T03:23:48.964Z,22.73
2018-12-06T03:26:15.438Z,21.90
2018-12-06T03:28:41.829Z,21.63
2018-12-06T03:31:08.296Z,22.10
2018-12-06T03:33:34.874Z,24.20
2018-12-06T03:36:01.507Z,24.40
2018-12-06T03:38:27.925Z,24.97
2018-12-06T03:40:54.378Z,25.90
2018-12-06T03:43:20.797Z,23.00
2018-12-06T03:45:47.524Z,28.27
2018-12-06T03:48:13.937Z,22.57
2018-12-06T03:50:40.401Z,28.40
2018-12-06T03:53:06.803Z,24.87
2018-12-06T03:55:33.267Z,29.07
2018-12-06T03:57:59.728Z,22.33
2018-12-06T04:00:26.154Z,24.93
2018-12-06T04:02:52.591Z,27.27
2018-12-06T04:05:19.376Z,26.07
2018-12-06T04:07:45.855Z,23.80
2018-12-06T04:10:12.734Z,25.83
2018-12-06T04:12:39.164Z,28.43
2018-12-06T04:15:05.731Z,23.43
2018-12-06T04:17:32.219Z,25.87
2018-12-06T04:19:58.646Z,25.60
2018-12-06T04:22:25.284Z,22.23
2018-12-06T04:24:51.692Z,22.03
2018-12-06T04:27:18.166Z,24.33
2018-12-06T04:29:44.564Z,25.47
2018-12-06T04:32:11.004Z,20.83
2018-12-06T04:34:37.461Z,23.67
2018-12-06T04:37:04.000Z,23.10
2018-12-06T04:39:30.449Z,25.00
2018-12-06T04:41:57.871Z,25.00
2018-12-06T04:44:24.686Z,22.00
2018-12-06T04:46:51.223Z,22.50
2018-12-06T04:49:18.002Z,23.57
2018-12-06T04:51:44.490Z,23.17
2018-12-06T04:54:10.996Z,21.80
2018-12-06T04:56:37.421Z,23.43
2018-12-06T04:59:03.921Z,22.30
2018-12-06T05:01:30.405Z,23.30
2018-12-06T05:03:56.782Z,21.50
2018-12-06T05:06:23.215Z,20.60
2018-12-06T05:08:49.684Z,19.80
2018-12-06T05:11:16.425Z,18.87
2018-12-06T05:13:42.840Z,22.93
2018-12-06T05:16:09.221Z,26.73
2018-12-06T05:18:35.663Z,25.10
2018-12-06T05:21:02.425Z,23.47
2018-12-06T05:23:28.842Z,24.50
2018-12-06T05:25:55.671Z,24.97
2018-12-06T05:28:22.332Z,27.20
2018-12-06T05:30:48.797Z,29.03
2018-12-06T05:33:15.615Z,26.27
2018-12-06T05:35:42.007Z,25.17
2018-12-06T05:38:08.514Z,24.33
2018-12-06T05:40:35.319Z,24.20
2018-12-06T05:43:01.763Z,27.93
2018-12-06T05:45:28.171Z,24.63
2018-12-06T05:47:54.984Z,31.77
2018-12-06T05:50:21.431Z,27.93
2018-12-06T05:52:47.964Z,29.00
2018-12-06T05:55:14.438Z,26.90
2018-12-06T05:57:40.912Z,28.93
2018-12-06T06:00:07.514Z,26.10
2018-12-06T06:02:34.322Z,29.83
2018-12-06T06:05:01.121Z,24.67
2018-12-06T06:07:27.565Z,32.53
2018-12-06T06:09:53.983Z,31.10
2018-12-06T06:12:20.383Z,30.30
2018-12-06T06:14:46.823Z,25.10
2018-12-06T06:17:13.299Z,30.03
2018-12-06T06:19:40.116Z,27.23
2018-12-06T06:22:06.551Z,29.53
2018-12-06T06:24:32.989Z,32.30
2018-12-06T06:27:00.381Z,30.07
2018-12-06T06:29:26.858Z,33.37
2018-12-06T06:31:53.321Z,31.30
2018-12-06T06:34:19.763Z,29.33
2018-12-06T06:36:46.216Z,28.03
2018-12-06T06:39:12.714Z,30.37
2018-12-06T06:41:39.590Z,32.30
2018-12-06T06:44:06.104Z,30.20
2018-12-06T06:46:32.599Z,30.27
2018-12-06T06:48:59.031Z,29.07
2018-12-06T06:51:25.479Z,25.77
2018-12-06T06:53:51.920Z,29.17
2018-12-06T06:56:18.489Z,27.63
2018-12-06T06:58:44.986Z,30.27
2018-12-06T07:01:11.375Z,27.63
2018-12-06T07:03:37.801Z,27.70
2018-12-06T07:06:04.380Z,30.90
2018-12-06T07:08:30.864Z,31.13
2018-12-06T07:10:58.269Z,29.27
2018-12-06T07:13:25.101Z,29.93
2018-12-06T07:15:51.510Z,28.03
2018-12-06T07:18:18.272Z,28.70
2018-12-06T07:20:45.295Z,25.00
2018-12-06T07:23:11.744Z,28.23
2018-12-06T07:25:46.075Z,28.83
2018-12-06T07:28:07.112Z,26.80
2018-12-06T07:30:34.679Z,28.90
2018-12-06T07:33:01.152Z,27.57
2018-12-06T07:35:27.562Z,25.97
2018-12-06T07:37:54.021Z,26.33
2018-12-06T07:40:20.875Z,31.57
2018-12-06T07:42:47.417Z,25.87
2018-12-06T07:45:13.932Z,32.83
2018-12-06T07:47:40.412Z,29.40
2018-12-06T07:50:07.300Z,30.27
2018-12-06T07:52:33.750Z,29.10
2018-12-06T07:55:00.198Z,27.07
2018-12-06T07:57:26.657Z,28.93
2018-12-06T07:59:53.157Z,27.97
2018-12-06T08:02:19.593Z,31.60
2018-12-06T08:04:46.098Z,24.40
2018-12-06T08:07:12.644Z,29.97
2018-12-06T08:09:39.177Z,30.63
2018-12-06T08:12:07.136Z,30.87
2018-12-06T08:14:33.655Z,28.70
2018-12-06T08:17:00.214Z,28.37
2018-12-06T08:19:27.068Z,33.53
2018-12-06T08:21:53.618Z,35.80
2018-12-06T08:24:20.122Z,32.60
2018-12-06T08:26:46.520Z,29.77
2018-12-06T08:29:13.056Z,30.50
2018-12-06T08:31:39.538Z,30.50
2018-12-06T08:34:06.648Z,34.43
2018-12-06T08:36:33.485Z,30.27
2018-12-06T08:38:59.882Z,32.90
2018-12-06T08:41:26.629Z,36.30
2018-12-06T08:43:53.094Z,34.73
2018-12-06T08:46:19.498Z,31.83
2018-12-06T08:48:45.959Z,36.43
2018-12-06T08:51:12.536Z,32.90
2018-12-06T08:53:38.992Z,30.43
2018-12-06T08:56:05.427Z,32.03
2018-12-06T08:58:32.318Z,34.53
2018-12-06T09:00:58.758Z,33.03
2018-12-06T09:03:25.255Z,34.37
2018-12-06T09:05:52.046Z,31.50
2018-12-06T09:08:18.683Z,33.10
2018-12-06T09:10:51.317Z,31.67
2018-12-06T09:13:13.558Z,30.90
2018-12-06T09:15:41.242Z,35.23
2018-12-06T09:18:07.826Z,31.93
2018-12-06T09:20:34.355Z,35.63
2018-12-06T09:23:00.790Z,32.43
2018-12-06T09:25:27.212Z,33.97
2018-12-06T09:27:53.623Z,31.50
2018-12-06T09:30:20.110Z,30.10
2018-12-06T09:32:46.640Z,30.20
2018-12-06T09:35:13.472Z,32.70
2018-12-06T09:37:40.021Z,31.40
2018-12-06T09:40:06.604Z,39.97
2018-12-06T09:42:34.661Z,43.63
2018-12-06T09:45:01.378Z,40.57
2018-12-06T09:47:28.247Z,37.43
2018-12-06T09:49:55.039Z,38.73
2018-12-06T09:52:21.848Z,34.97
2018-12-06T09:54:48.736Z,35.17
2018-12-06T09:57:15.145Z,35.97
2018-12-06T09:59:41.587Z,35.00
2018-12-06T10:02:08.066Z,34.27
2018-12-06T10:04:34.504Z,38.97
2018-12-06T10:07:00.993Z,39.27
2018-12-06T10:09:27.504Z,37.60
2018-12-06T10:11:53.969Z,36.47
2018-12-06T10:14:20.871Z,42.17
2018-12-06T10:16:47.314Z,43.53
2018-12-06T10:19:14.100Z,44.53
2018-12-06T10:21:40.544Z,39.27
2018-12-06T10:24:06.993Z,45.83
2018-12-06T10:26:33.447Z,42.77
2018-12-06T10:28:59.870Z,42.83
2018-12-06T10:31:26.669Z,43.23
2018-12-06T10:33:53.100Z,41.83
2018-12-06T10:36:19.540Z,36.50
2018-12-06T10:38:45.945Z,35.60
2018-12-06T10:41:14.503Z,32.73
2018-12-06T10:43:47.570Z,30.27
2018-12-06T10:46:14.000Z,34.03
2018-12-06T10:48:40.386Z,29.60
2018-12-06T10:51:17.892Z,30.27
2018-12-06T10:53:44.313Z,27.73
2018-12-06T10:56:10.766Z,24.03
2018-12-06T10:58:37.291Z,26.63
2018-12-06T11:01:08.041Z,23.80
2018-12-06T11:03:36.515Z,27.13
2018-12-06T11:06:02.968Z,26.67
2018-12-06T11:08:29.394Z,23.87
2018-12-06T11:10:56.182Z,23.50
2018-12-06T11:13:22.610Z,23.73
2018-12-06T11:15:49.074Z,25.23
2018-12-06T11:18:15.513Z,22.77
2018-12-06T11:20:41.960Z,23.57
2018-12-06T11:23:08.519Z,22.67
2018-12-06T11:25:34.928Z,20.00
2018-12-06T11:28:01.752Z,29.10
2018-12-06T11:30:28.163Z,23.33
2018-12-06T11:32:54.673Z,27.90
2018-12-06T11:35:21.403Z,26.87
2018-12-06T11:37:48.688Z,24.23
2018-12-06T11:40:15.244Z,23.57
2018-12-06T11:42:42.595Z,27.07
2018-12-06T11:45:09.051Z,27.53
2018-12-06T11:47:36.270Z,27.20
2018-12-06T11:50:04.769Z,24.83
2018-12-06T11:52:31.650Z,27.07
2018-12-06T11:54:58.135Z,25.33
2018-12-06T11:57:25.331Z,25.83
2018-12-06T11:59:52.281Z,23.57
2018-12-06T12:02:19.321Z,30.33
2018-12-06T12:04:45.729Z,25.63
2018-12-06T12:07:12.177Z,26.30
2018-12-06T12:09:38.843Z,21.33
2018-12-06T12:12:05.248Z,22.53
2018-12-06T12:14:32.146Z,24.53
2018-12-06T12:16:58.635Z,22.13
2018-12-06T12:19:25.198Z,20.27
2018-12-06T12:21:51.637Z,22.10
2018-12-06T12:24:18.130Z,20.80
2018-12-06T12:26:45.099Z,25.67
2018-12-06T12:29:11.965Z,23.67
2018-12-06T12:31:38.413Z,19.23
2018-12-06T12:34:04.966Z,19.00
2018-12-06T12:36:31.435Z,20.57
2018-12-06T12:38:57.948Z,16.33
2018-12-06T12:41:24.432Z,20.73
2018-12-06T12:43:50.859Z,18.63
2018-12-06T12:46:18.490Z,14.17
2018-12-06T12:48:45.041Z,16.07
2018-12-06T12:51:11.623Z,15.90
2018-12-06T12:53:38.169Z,16.27
2018-12-06T12:56:04.712Z,16.43
2018-12-06T12:58:31.222Z,15.33
2018-12-06T13:00:58.027Z,17.97
2018-12-06T13:03:24.684Z,15.03
2018-12-06T13:05:51.111Z,17.47
2018-12-06T13:08:17.671Z,14.00
2018-12-06T13:10:44.101Z,13.70
2018-12-06T13:13:10.917Z,16.73
2018-12-06T13:15:37.385Z,19.13
2018-12-06T13:18:03.921Z,15.03
2018-12-06T13:20:30.439Z,13.40
2018-12-06T13:22:57.227Z,14.23
2018-12-06T13:25:23.636Z,20.07
2018-12-06T13:27:50.087Z,17.87
2018-12-06T13:30:16.512Z,19.33
2018-12-06T13:32:42.998Z,17.33
2018-12-06T13:35:09.410Z,15.30
2018-12-06T13:37:35.858Z,18.37
2018-12-06T13:40:03.378Z,18.57
2018-12-06T13:42:30.068Z,21.27
2018-12-06T13:44:56.861Z,16.13
2018-12-06T13:47:23.368Z,23.00
2018-12-06T13:49:50.679Z,18.50
2018-12-06T13:52:17.156Z,20.23
2018-12-06T13:54:43.902Z,18.40
2018-12-06T13:57:10.665Z,15.77
2018-12-06T13:59:37.087Z,18.83
2018-12-06T14:02:04.009Z,21.23
2018-12-06T14:04:30.795Z,16.23
2018-12-06T14:06:57.306Z,21.67
2018-12-06T14:09:23.779Z,18.73
2018-12-06T14:11:50.599Z,16.70
2018-12-06T14:14:17.159Z,21.40
2018-12-06T14:16:43.926Z,20.03
2018-12-06T14:19:10.376Z,18.07
2018-12-06T14:21:36.912Z,19.53
2018-12-06T14:24:03.334Z,17.13
2018-12-06T14:26:29.806Z,16.77
2018-12-06T14:28:56.234Z,15.83
2018-12-06T14:31:22.719Z,17.03
2018-12-06T14:33:49.205Z,14.50
2018-12-06T14:36:15.744Z,16.47
2018-12-06T14:38:42.092Z,13.50
2018-12-06T14:41:08.558Z,17.67
2018-12-06T14:43:35.153Z,19.30
2018-12-06T14:46:01.832Z,17.57
2018-12-06T14:48:28.766Z,19.30
2018-12-06T14:50:55.661Z,21.43
2018-12-06T14:53:22.216Z,25.93
2018-12-06T14:55:49.002Z,20.17
2018-12-06T14:58:16.340Z,18.37
2018-12-06T15:00:43.632Z,19.40
2018-12-06T15:03:10.142Z,21.43
2018-12-06T15:05:36.554Z,19.87
2018-12-06T15:08:03.015Z,16.53
2018-12-06T15:10:29.429Z,19.00
2018-12-06T15:12:55.927Z,25.40
2018-12-06T15:15:22.371Z,23.37
2018-12-06T15:17:48.805Z,19.47
2018-12-06T15:20:15.279Z,17.83
2018-12-06T15:22:41.740Z,23.37
2018-12-06T15:25:08.504Z,19.10
2018-12-06T15:27:35.475Z,24.40
2018-12-06T15:30:02.346Z,21.60
2018-12-06T15:32:29.106Z,13.27
2018-12-06T15:34:56.495Z,16.73
2018-12-06T15:37:23.134Z,15.13
2018-12-06T15:39:49.647Z,16.60
2018-12-06T15:42:16.093Z,11.40
2018-12-06T15:44:42.556Z,10.20
2018-12-06T15:47:09.001Z,14.90
2018-12-06T15:49:35.402Z,12.90
2018-12-06T15:52:01.894Z,12.67
2018-12-06T15:54:28.285Z,12.83
2018-12-06T15:56:55.052Z,19.10
2018-12-06T15:59:21.568Z,11.10
2018-12-06T16:01:48.287Z,15.90
2018-12-06T16:04:14.683Z,14.97
2018-12-06T16:06:41.122Z,16.43
2018-12-06T16:09:07.621Z,18.20
2018-12-06T16:11:34.088Z,15.73
2018-12-06T16:14:00.598Z,16.60
2018-12-06T16:16:27.135Z,19.70
2018-12-06T16:18:53.629Z,19.03
2018-12-06T16:21:20.063Z,14.17
2018-12-06T16:23:46.480Z,16.03
2018-12-06T16:26:13.017Z,15.13
2018-12-06T16:28:39.485Z,17.67
2018-12-06T16:31:05.950Z,15.87
2018-12-06T16:33:32.416Z,18.43
2018-12-06T16:35:58.851Z,18.13
2018-12-06T16:38:26.310Z,16.13
2018-12-06T16:40:52.780Z,17.27
2018-12-06T16:43:19.226Z,18.00
2018-12-06T16:45:45.767Z,15.93
2018-12-06T16:48:12.189Z,15.80
2018-12-06T16:50:38.785Z,16.60
2018-12-06T16:53:05.198Z,14.50
2018-12-06T16:55:31.674Z,15.80
2018-12-06T16:57:58.432Z,14.83
2018-12-06T17:00:24.844Z,14.83
2018-12-06T17:02:51.319Z,16.00
2018-12-06T17:05:17.743Z,13.17
2018-12-06T17:07:44.134Z,14.67
2018-12-06T17:10:10.931Z,16.77
2018-12-06T17:12:37.366Z,15.00
2018-12-06T17:15:04.916Z,17.73
2018-12-06T17:17:31.424Z,15.37
2018-12-06T17:19:57.981Z,12.23
2018-12-06T17:22:24.432Z,20.23
2018-12-06T17:24:51.014Z,19.10
2018-12-06T17:27:17.552Z,18.30
2018-12-06T17:29:44.139Z,17.97
2018-12-06T17:32:10.802Z,20.27
2018-12-06T17:34:37.910Z,15.33
2018-12-06T17:37:04.333Z,19.43
2018-12-06T17:39:30.760Z,17.77
2018-12-06T17:41:57.583Z,17.23
2018-12-06T17:44:24.114Z,15.97
2018-12-06T17:46:50.579Z,17.50
2018-12-06T17:49:17.060Z,12.40
2018-12-06T17:51:44.283Z,15.63
2018-12-06T17:54:10.750Z,13.80
2018-12-06T17:56:37.216Z,16.63
2018-12-06T17:59:03.971Z,14.17
2018-12-06T18:01:30.657Z,8.67
2018-12-06T18:03:57.117Z,9.80
2018-12-06T18:06:23.924Z,12.23
2018-12-06T18:08:50.344Z,10.97
2018-12-06T18:11:17.107Z,15.30
2018-12-06T18:13:44.107Z,12.63
2018-12-06T18:16:10.928Z,11.33
2018-12-06T18:18:40.454Z,14.97
2018-12-06T18:21:06.201Z,13.97
2018-12-06T18:23:33.023Z,11.60
2018-12-06T18:25:59.484Z,14.20
2018-12-06T18:28:25.868Z,13.13
2018-12-06T18:30:52.322Z,13.13
2018-12-06T18:33:18.799Z,13.07
2018-12-06T18:35:45.282Z,15.93
2018-12-06T18:38:11.883Z,17.60
2018-12-06T18:40:38.415Z,14.97
2018-12-06T18:43:05.248Z,15.10
2018-12-06T18:45:32.086Z,17.23
2018-12-06T18:47:58.843Z,14.67
2018-12-06T18:50:25.301Z,13.83
2018-12-06T18:52:52.001Z,11.50
2018-12-06T18:55:18.507Z,14.00
2018-12-06T18:57:44.962Z,17.37
2018-12-06T19:00:11.604Z,14.20
2018-12-06T19:02:38.027Z,14.37
2018-12-06T19:05:04.679Z,13.87
2018-12-06T19:07:31.248Z,16.03
2018-12-06T19:09:57.735Z,14.73
2018-12-06T19:12:24.585Z,16.20
2018-12-06T19:14:51.144Z,16.33
2018-12-06T19:17:17.603Z,16.33
2018-12-06T19:19:44.126Z,16.97
2018-12-06T19:22:11.096Z,15.27
2018-12-06T19:24:37.874Z,19.63
2018-12-06T19:27:04.652Z,19.63
2018-12-06T19:29:31.074Z,16.90
2018-12-06T19:31:57.882Z,16.73
2018-12-06T19:34:24.367Z,22.77
2018-12-06T19:36:50.801Z,20.93
2018-12-06T19:39:17.219Z,22.27
2018-12-06T19:41:43.600Z,19.27
2018-12-06T19:44:10.361Z,22.60
2018-12-06T19:46:37.250Z,17.93
2018-12-06T19:49:03.685Z,18.10
2018-12-06T19:51:30.757Z,19.93
2018-12-06T19:53:57.171Z,24.77
2018-12-06T19:56:23.604Z,23.43
2018-12-06T19:58:50.355Z,22.80
2018-12-06T20:01:17.236Z,19.00
2018-12-06T20:03:43.669Z,16.90
2018-12-06T20:06:10.199Z,21.13
2018-12-06T20:08:37.588Z,19.37
2018-12-06T20:11:04.328Z,17.80
2018-12-06T20:13:30.877Z,18.13
2018-12-06T20:15:57.329Z,17.83
2018-12-06T20:18:23.770Z,13.37
2018-12-06T20:20:50.664Z,16.33
2018-12-06T20:23:17.161Z,13.70
2018-12-06T20:25:43.686Z,14.00
2018-12-06T20:28:10.096Z,14.20
2018-12-06T20:30:36.707Z,15.67
2018-12-06T20:33:03.574Z,16.13
2018-12-06T20:35:31.006Z,15.63
2018-12-06T20:37:57.423Z,15.70
2018-12-06T20:40:23.924Z,12.77
2018-12-06T20:42:50.476Z,12.80
2018-12-06T20:45:16.911Z,13.07
2018-12-06T20:47:43.442Z,15.53
2018-12-06T20:50:10.284Z,14.67
2018-12-06T20:52:37.056Z,14.83
2018-12-06T20:55:05.681Z,15.30
2018-12-06T20:57:37.214Z,14.37
2018-12-06T21:00:01.124Z,14.10
2018-12-06T21:02:27.807Z,14.60
2018-12-06T21:04:54.293Z,14.63
2018-12-06T21:07:21.097Z,15.40
2018-12-06T21:09:47.669Z,13.50
2018-12-06T21:12:14.120Z,13.47
2018-12-06T21:14:40.497Z,13.93
2018-12-06T21:17:07.139Z,13.17
2018-12-06T21:19:33.710Z,13.57
2018-12-06T21:22:00.153Z,12.93
2018-12-06T21:24:26.571Z,12.10
2018-12-06T21:26:52.967Z,12.53
2018-12-06T21:29:19.821Z,13.60
2018-12-06T21:31:46.301Z,13.50
2018-12-06T21:34:13.002Z,11.77
2018-12-06T21:36:39.437Z,12.50
2018-12-06T21:39:06.018Z,12.97
2018-12-06T21:41:32.836Z,14.57
2018-12-06T21:44:00.246Z,12.13
2018-12-06T21:46:27.102Z,13.23
2018-12-06T21:48:54.262Z,13.20
2018-12-06T21:51:20.837Z,11.97
2018-12-06T21:53:47.375Z,12.63
2018-12-06T21:56:13.777Z,12.70
2018-12-06T21:58:40.214Z,13.30
2018-12-06T22:01:07.643Z,14.57
2018-12-06T22:03:34.142Z,13.83
2018-12-06T22:06:00.561Z,13.87
2018-12-06T22:08:27.110Z,13.43
2018-12-06T22:10:53.540Z,13.90
2018-12-06T22:13:19.983Z,13.20
2018-12-06T22:15:46.768Z,12.47
2018-12-06T22:18:13.181Z,14.87
2018-12-06T22:20:40.665Z,13.07
2018-12-06T22:23:07.588Z,14.00
2018-12-06T22:25:34.034Z,17.83
2018-12-06T22:28:00.488Z,13.33
2018-12-06T22:30:26.886Z,14.13
2018-12-06T22:32:53.426Z,13.70
2018-12-06T22:35:20.271Z,13.73
2018-12-06T22:37:46.818Z,13.93
2018-12-06T22:40:13.602Z,15.07
2018-12-06T22:42:40.152Z,14.67
2018-12-06T22:45:11.862Z,13.93
2018-12-06T22:47:38.388Z,14.93
2018-12-06T22:50:05.082Z,15.20
2018-12-06T22:52:31.622Z,14.40
2018-12-06T22:54:58.043Z,15.33
2018-12-06T22:57:24.362Z,16.50
2018-12-06T22:59:52.054Z,15.47
2018-12-06T23:02:18.471Z,16.47
2018-12-06T23:04:44.893Z,17.13
2018-12-06T23:07:11.442Z,17.87
2018-12-06T23:09:37.877Z,19.07
2018-12-06T23:12:04.303Z,15.23
2018-12-06T23:14:30.722Z,15.17
2018-12-06T23:16:57.189Z,19.17
2018-12-06T23:19:23.594Z,16.03
2018-12-06T23:21:50.141Z,15.27
2018-12-06T23:24:16.579Z,13.67
2018-12-06T23:26:43.062Z,13.50
2018-12-06T23:29:09.501Z,10.60
2018-12-06T23:31:35.989Z,14.17
2018-12-06T23:34:02.370Z,10.33
2018-12-06T23:36:28.814Z,12.37
2018-12-06T23:38:55.214Z,13.07
2018-12-06T23:41:21.640Z,9.93
2018-12-06T23:43:48.075Z,12.43
2018-12-06T23:46:14.510Z,9.00
2018-12-06T23:48:40.977Z,7.97
2018-12-06T23:51:33.627Z,8.87
2018-12-06T23:54:00.094Z,10.73
2018-12-06T23:56:26.502Z,10.70
2018-12-06T23:58:53.036Z,7.83
